createdAt,value
2019-02-05T00:00:47.568Z,1.63
2019-02-05T00:03:17.596Z,1.97
2019-02-05T00:05:44.844Z,1.77
2019-02-05T00:08:12.123Z,2.00
2019-02-05T00:10:39.356Z,1.77
2019-02-05T00:13:06.739Z,1.87
2019-02-05T00:15:34.718Z,1.67
2019-02-05T00:18:02.062Z,1.67
2019-02-05T00:20:29.265Z,1.53
2019-02-05T00:22:56.415Z,1.50
2019-02-05T00:25:23.675Z,1.67
2019-02-05T00:27:50.885Z,2.10
2019-02-05T00:30:18.080Z,1.40
2019-02-05T00:32:45.673Z,1.73
2019-02-05T00:35:12.879Z,1.67
2019-02-05T00:37:40.173Z,1.60
2019-02-05T00:40:07.683Z,1.50
2019-02-05T00:42:34.889Z,1.60
2019-02-05T00:45:02.086Z,1.70
2019-02-05T00:47:32.167Z,1.60
2019-02-05T00:49:58.386Z,1.53
2019-02-05T00:52:25.598Z,1.60
2019-02-05T00:54:52.751Z,1.40
2019-02-05T00:57:20.043Z,1.63
2019-02-05T00:59:47.194Z,1.90
2019-02-05T01:02:14.581Z,1.70
2019-02-05T01:04:41.785Z,1.60
2019-02-05T01:07:09.152Z,1.70
2019-02-05T01:09:36.338Z,1.60
2019-02-05T01:12:03.577Z,1.70
2019-02-05T01:14:30.714Z,1.50
2019-02-05T01:16:57.888Z,2.60
2019-02-05T01:19:25.105Z,1.50
2019-02-05T01:21:52.330Z,2.00
2019-02-05T01:24:20.112Z,1.73
2019-02-05T01:26:47.331Z,1.40
2019-02-05T01:29:14.488Z,1.73
2019-02-05T01:31:41.809Z,1.73
2019-02-05T01:34:08.986Z,1.20
2019-02-05T01:36:36.214Z,1.60
2019-02-05T01:39:05.621Z,1.70
2019-02-05T01:41:33.255Z,1.43
2019-02-05T01:44:00.442Z,1.50
2019-02-05T01:46:27.634Z,1.70
2019-02-05T01:48:54.838Z,1.67
2019-02-05T01:51:22.059Z,1.80
2019-02-05T01:53:49.372Z,1.60
2019-02-05T01:56:16.578Z,1.50
2019-02-05T01:58:44.392Z,1.80
2019-02-05T02:01:12.003Z,1.50
2019-02-05T02:03:39.143Z,1.40
2019-02-05T02:06:06.381Z,1.30
2019-02-05T02:08:33.644Z,1.47
2019-02-05T02:11:00.833Z,1.67
2019-02-05T02:13:28.034Z,1.60
2019-02-05T02:15:55.226Z,1.80
2019-02-05T02:18:22.512Z,1.97
2019-02-05T02:20:49.718Z,1.50
2019-02-05T02:23:16.911Z,1.47
2019-02-05T02:25:44.119Z,1.70
2019-02-05T02:28:11.306Z,1.70
2019-02-05T02:30:38.753Z,1.30
2019-02-05T02:33:06.354Z,1.63
2019-02-05T02:35:33.917Z,1.63
2019-02-05T02:38:01.108Z,1.30
2019-02-05T02:40:28.442Z,1.70
2019-02-05T02:42:55.587Z,1.50
2019-02-05T02:45:22.799Z,1.60
2019-02-05T02:47:50.127Z,1.63
2019-02-05T02:50:17.320Z,1.63
2019-02-05T02:52:44.930Z,1.50
2019-02-05T02:55:12.180Z,1.70
2019-02-05T02:57:39.408Z,1.60
2019-02-05T03:00:09.252Z,1.73
2019-02-05T03:02:36.553Z,1.70
2019-02-05T03:05:05.303Z,1.40
2019-02-05T03:07:32.579Z,1.50
2019-02-05T03:09:59.825Z,1.27
2019-02-05T03:12:27.118Z,1.70
2019-02-05T03:14:54.367Z,1.67
2019-02-05T03:17:21.551Z,1.50
2019-02-05T03:19:48.737Z,1.30
2019-02-05T03:22:15.922Z,1.60
2019-02-05T03:24:43.136Z,1.40
2019-02-05T03:27:17.810Z,1.60
2019-02-05T03:29:39.396Z,1.50
2019-02-05T03:32:07.038Z,1.53
2019-02-05T03:34:34.245Z,1.50
2019-02-05T03:37:01.457Z,1.40
2019-02-05T03:39:28.694Z,1.80
2019-02-05T03:41:56.022Z,1.53
2019-02-05T03:44:23.236Z,1.70
2019-02-05T03:46:50.495Z,1.63
2019-02-05T03:49:17.679Z,1.50
2019-02-05T03:52:03.164Z,1.57
2019-02-05T03:55:11.486Z,1.30
2019-02-05T03:58:01.996Z,1.63
2019-02-05T04:01:19.564Z,1.50
2019-02-05T04:04:53.030Z,1.77
2019-02-05T04:07:56.251Z,1.50
2019-02-05T04:11:17.148Z,1.70
2019-02-05T04:14:30.524Z,1.83
2019-02-05T04:18:00.758Z,1.93
2019-02-05T04:21:11.850Z,2.30
2019-02-05T04:23:53.304Z,1.80
2019-02-05T04:27:05.861Z,1.50
2019-02-05T04:30:11.968Z,1.50
2019-02-05T04:32:46.050Z,1.90
2019-02-05T04:35:48.451Z,1.53
2019-02-05T04:39:04.373Z,1.67
2019-02-05T04:41:56.324Z,2.10
2019-02-05T04:45:17.262Z,1.77
2019-02-05T04:48:11.213Z,1.83
2019-02-05T04:51:20.933Z,1.70
2019-02-05T04:54:24.594Z,1.70
2019-02-05T04:57:25.153Z,1.60
2019-02-05T05:00:46.902Z,1.27
2019-02-05T05:03:33.903Z,1.80
2019-02-05T05:06:17.898Z,1.50
2019-02-05T05:09:17.725Z,1.97
2019-02-05T05:11:44.902Z,1.80
2019-02-05T05:14:12.060Z,1.70
2019-02-05T05:16:39.340Z,1.57
2019-02-05T05:19:06.541Z,1.60
2019-02-05T05:21:34.150Z,1.23
2019-02-05T05:24:01.577Z,1.77
2019-02-05T05:26:28.840Z,1.90
2019-02-05T05:28:55.988Z,1.70
2019-02-05T05:31:23.226Z,1.50
2019-02-05T05:33:50.413Z,1.80
2019-02-05T05:36:17.606Z,1.50
2019-02-05T05:38:45.826Z,1.90
2019-02-05T05:41:13.507Z,1.97
2019-02-05T05:43:41.605Z,1.80
2019-02-05T05:46:09.028Z,2.03
2019-02-05T05:48:36.375Z,1.73
2019-02-05T05:51:03.779Z,1.93
2019-02-05T05:53:31.180Z,1.90
2019-02-05T05:55:58.494Z,1.87
2019-02-05T05:58:26.073Z,2.27
2019-02-05T06:00:53.674Z,1.60
2019-02-05T06:03:20.871Z,1.57
2019-02-05T06:05:48.045Z,1.67
2019-02-05T06:08:15.263Z,2.27
2019-02-05T06:10:42.484Z,1.90
2019-02-05T06:13:09.639Z,1.90
2019-02-05T06:15:36.903Z,2.00
2019-02-05T06:18:04.256Z,2.40
2019-02-05T06:20:32.634Z,1.90
2019-02-05T06:22:59.897Z,2.63
2019-02-05T06:25:27.129Z,2.23
2019-02-05T06:27:54.323Z,3.10
2019-02-05T06:30:21.502Z,2.83
2019-02-05T06:32:48.821Z,2.87
2019-02-05T06:35:16.044Z,2.80
2019-02-05T06:37:43.278Z,2.77
2019-02-05T06:40:11.090Z,2.60
2019-02-05T06:42:38.334Z,3.03
2019-02-05T06:45:06.885Z,3.50
2019-02-05T06:47:34.781Z,3.90
2019-02-05T06:50:02.020Z,3.30
2019-02-05T06:52:29.412Z,2.87
2019-02-05T06:54:56.758Z,2.87
2019-02-05T06:57:24.526Z,3.17
2019-02-05T06:59:51.997Z,3.07
2019-02-05T07:02:19.426Z,3.23
2019-02-05T07:04:46.681Z,3.30
2019-02-05T07:07:13.891Z,3.00
2019-02-05T07:09:41.100Z,2.80
2019-02-05T07:12:08.301Z,2.60
2019-02-05T07:14:35.524Z,2.67
2019-02-05T07:17:02.931Z,3.23
2019-02-05T07:19:30.118Z,2.90
2019-02-05T07:21:57.591Z,2.30
2019-02-05T07:24:24.822Z,2.97
2019-02-05T07:26:52.189Z,3.00
2019-02-05T07:29:19.411Z,2.47
2019-02-05T07:31:46.730Z,2.60
2019-02-05T07:34:16.172Z,2.50
2019-02-05T07:36:43.818Z,2.33
2019-02-05T07:39:11.105Z,3.27
2019-02-05T07:41:38.377Z,2.57
2019-02-05T07:44:05.625Z,3.10
2019-02-05T07:46:32.842Z,2.70
2019-02-05T07:49:00.158Z,2.70
2019-02-05T07:51:27.363Z,3.97
2019-02-05T07:53:54.558Z,2.57
2019-02-05T07:56:21.807Z,2.60
2019-02-05T07:58:49.551Z,2.80
2019-02-05T08:01:17.728Z,2.20
2019-02-05T08:03:45.068Z,2.50
2019-02-05T08:06:12.282Z,3.00
2019-02-05T08:08:39.488Z,2.50
2019-02-05T08:11:06.716Z,2.20
2019-02-05T08:13:33.917Z,3.20
2019-02-05T08:16:01.262Z,3.23
2019-02-05T08:18:28.580Z,2.80
2019-02-05T08:20:55.813Z,2.47
2019-02-05T08:23:23.407Z,2.70
2019-02-05T08:25:50.717Z,2.80
2019-02-05T08:28:17.934Z,2.87
2019-02-05T08:30:46.919Z,2.77
2019-02-05T08:33:14.261Z,2.30
2019-02-05T08:35:41.623Z,3.00
2019-02-05T08:38:08.870Z,2.53
2019-02-05T08:40:36.109Z,2.23
2019-02-05T08:43:04.198Z,2.27
2019-02-05T08:45:31.482Z,3.40
2019-02-05T08:47:58.726Z,2.80
2019-02-05T08:50:27.411Z,2.83
2019-02-05T08:52:54.878Z,2.73
2019-02-05T08:55:22.085Z,2.40
2019-02-05T08:57:50.227Z,2.40
2019-02-05T09:00:19.810Z,3.13
2019-02-05T09:02:47.357Z,3.33
2019-02-05T09:05:15.083Z,2.53
2019-02-05T09:07:42.374Z,2.27
2019-02-05T09:10:11.574Z,2.60
2019-02-05T09:12:38.787Z,2.37
2019-02-05T09:15:07.515Z,2.63
2019-02-05T09:17:34.758Z,2.20
2019-02-05T09:20:01.969Z,2.57
2019-02-05T09:22:29.344Z,2.10
2019-02-05T09:24:56.599Z,2.37
2019-02-05T09:27:24.127Z,2.23
2019-02-05T09:29:51.522Z,2.33
2019-02-05T09:32:18.690Z,2.60
2019-02-05T09:34:45.899Z,2.57
2019-02-05T09:37:13.263Z,2.63
2019-02-05T09:39:40.533Z,2.80
2019-02-05T09:42:08.027Z,3.30
2019-02-05T09:44:35.306Z,2.40
2019-02-05T09:47:02.535Z,2.17
2019-02-05T09:49:29.866Z,2.60
2019-02-05T09:51:57.261Z,2.40
2019-02-05T09:54:24.501Z,2.73
2019-02-05T09:56:51.868Z,2.30
2019-02-05T09:59:19.118Z,2.60
2019-02-05T10:01:46.710Z,2.60
2019-02-05T10:04:13.962Z,1.83
2019-02-05T10:06:41.178Z,2.80
2019-02-05T10:09:08.516Z,2.10
2019-02-05T10:11:35.719Z,2.77
2019-02-05T10:14:02.887Z,3.20
2019-02-05T10:16:30.186Z,2.10
2019-02-05T10:18:57.427Z,2.50
2019-02-05T10:21:24.998Z,2.30
2019-02-05T10:23:52.370Z,2.33
2019-02-05T10:26:19.598Z,2.00
2019-02-05T10:28:46.811Z,2.23
2019-02-05T10:31:14.039Z,2.30
2019-02-05T10:33:41.245Z,2.63
2019-02-05T10:36:08.454Z,2.30
2019-02-05T10:38:35.656Z,2.80
2019-02-05T10:41:04.040Z,1.90
2019-02-05T10:43:31.294Z,2.17
2019-02-05T10:45:58.485Z,2.67
2019-02-05T10:48:25.730Z,2.53
2019-02-05T10:50:53.111Z,2.30
2019-02-05T10:53:20.425Z,2.87
2019-02-05T10:55:47.711Z,2.63
2019-02-05T10:58:14.963Z,2.40
2019-02-05T11:00:42.207Z,2.30
2019-02-05T11:03:09.409Z,2.93
2019-02-05T11:05:36.611Z,3.17
2019-02-05T11:08:03.965Z,3.30
2019-02-05T11:10:31.163Z,2.83
2019-02-05T11:12:58.502Z,2.70
2019-02-05T11:15:30.353Z,2.80
2019-02-05T11:17:57.552Z,2.30
2019-02-05T11:20:27.770Z,2.50
2019-02-05T11:22:55.234Z,2.67
2019-02-05T11:25:22.559Z,2.33
2019-02-05T11:27:49.856Z,2.80
2019-02-05T11:30:20.653Z,2.73
2019-02-05T11:32:48.943Z,3.40
2019-02-05T11:35:16.220Z,3.80
2019-02-05T11:37:43.475Z,3.13
2019-02-05T11:40:15.611Z,3.23
2019-02-05T11:42:44.428Z,3.03
2019-02-05T11:45:13.203Z,3.00
2019-02-05T11:47:40.554Z,2.93
2019-02-05T11:50:09.057Z,3.17
2019-02-05T11:52:36.508Z,2.90
2019-02-05T11:55:04.142Z,2.93
2019-02-05T11:57:31.703Z,3.10
2019-02-05T11:59:59.079Z,4.30
2019-02-05T12:02:26.308Z,3.67
2019-02-05T12:04:53.525Z,4.17
2019-02-05T12:07:20.894Z,4.13
2019-02-05T12:09:48.118Z,3.53
2019-02-05T12:12:15.402Z,3.97
2019-02-05T12:14:42.612Z,4.03
2019-02-05T12:17:10.328Z,3.20
2019-02-05T12:19:37.539Z,4.20
2019-02-05T12:22:04.878Z,4.20
2019-02-05T12:24:32.183Z,4.00
2019-02-05T12:26:59.670Z,4.00
2019-02-05T12:29:26.926Z,3.83
2019-02-05T12:31:54.131Z,4.00
2019-02-05T12:34:21.400Z,2.57
2019-02-05T12:36:48.616Z,3.33
2019-02-05T12:39:17.601Z,4.43
2019-02-05T12:41:44.875Z,3.93
2019-02-05T12:44:12.113Z,4.13
2019-02-05T12:46:39.601Z,3.43
2019-02-05T12:49:06.822Z,3.27
2019-02-05T12:51:34.031Z,3.60
2019-02-05T12:54:01.282Z,3.57
2019-02-05T12:56:28.945Z,3.90
2019-02-05T12:58:56.165Z,3.67
2019-02-05T13:01:23.380Z,3.53
2019-02-05T13:03:50.676Z,3.53
2019-02-05T13:06:19.056Z,3.37
2019-02-05T13:08:47.520Z,3.50
2019-02-05T13:11:14.688Z,3.33
2019-02-05T13:13:42.387Z,2.90
2019-02-05T13:16:09.667Z,2.93
2019-02-05T13:18:36.868Z,3.23
2019-02-05T13:21:04.066Z,3.30
2019-02-05T13:23:31.295Z,3.30
2019-02-05T13:25:58.516Z,3.50
2019-02-05T13:28:25.766Z,3.50
2019-02-05T13:30:53.006Z,2.70
2019-02-05T13:33:20.355Z,3.10
2019-02-05T13:35:47.570Z,3.57
2019-02-05T13:38:14.806Z,2.93
2019-02-05T13:40:42.039Z,4.10
2019-02-05T13:43:09.228Z,2.53
2019-02-05T13:45:36.414Z,3.13
2019-02-05T13:48:04.405Z,2.70
2019-02-05T13:50:33.481Z,3.03
2019-02-05T13:53:00.845Z,2.77
2019-02-05T13:55:37.601Z,2.50
2019-02-05T13:58:04.890Z,2.93
2019-02-05T14:00:39.994Z,2.50
2019-02-05T14:03:08.456Z,3.23
2019-02-05T14:05:35.896Z,3.30
2019-02-05T14:08:03.348Z,3.87
2019-02-05T14:10:31.169Z,2.90
2019-02-05T14:12:58.431Z,3.30
2019-02-05T14:15:27.548Z,4.30
2019-02-05T14:17:54.723Z,2.10
2019-02-05T14:20:22.430Z,2.80
2019-02-05T14:22:49.640Z,3.17
2019-02-05T14:25:16.918Z,3.50
2019-02-05T14:27:44.127Z,3.23
2019-02-05T14:30:15.501Z,2.70
2019-02-05T14:32:42.806Z,2.73
2019-02-05T14:35:10.009Z,2.60
2019-02-05T14:37:37.632Z,3.00
2019-02-05T14:40:07.312Z,2.63
2019-02-05T14:42:34.546Z,2.60
2019-02-05T14:45:01.775Z,2.70
2019-02-05T14:47:28.964Z,2.63
2019-02-05T14:49:56.288Z,2.53
2019-02-05T14:52:23.763Z,2.77
2019-02-05T14:54:51.949Z,2.40
2019-02-05T14:57:19.139Z,2.30
2019-02-05T14:59:46.348Z,2.73
2019-02-05T15:02:13.684Z,2.90
2019-02-05T15:04:40.912Z,2.90
2019-02-05T15:07:08.180Z,2.63
2019-02-05T15:09:35.634Z,2.50
2019-02-05T15:12:03.270Z,2.50
2019-02-05T15:14:30.606Z,2.43
2019-02-05T15:16:57.798Z,2.50
2019-02-05T15:19:24.972Z,2.83
2019-02-05T15:21:52.189Z,2.70
2019-02-05T15:24:19.424Z,2.50
2019-02-05T15:26:46.666Z,2.70
2019-02-05T15:29:14.265Z,2.50
2019-02-05T15:31:41.477Z,2.30
2019-02-05T15:34:23.467Z,2.70
2019-02-05T15:36:51.118Z,2.23
2019-02-05T15:39:18.499Z,2.60
2019-02-05T15:41:45.679Z,2.60
2019-02-05T15:44:13.170Z,2.23
2019-02-05T15:46:40.475Z,1.90
2019-02-05T15:49:07.661Z,2.60
2019-02-05T15:51:34.862Z,2.50
2019-02-05T15:54:02.097Z,2.20
2019-02-05T15:56:29.328Z,2.03
2019-02-05T15:58:56.614Z,2.53
2019-02-05T16:01:24.149Z,2.23
2019-02-05T16:03:51.485Z,2.00
2019-02-05T16:06:18.682Z,2.20
2019-02-05T16:08:45.889Z,1.60
2019-02-05T16:11:13.086Z,1.87
2019-02-05T16:13:40.235Z,2.07
2019-02-05T16:16:07.478Z,2.20
2019-02-05T16:18:34.693Z,2.00
2019-02-05T16:21:02.413Z,2.13
2019-02-05T16:23:29.661Z,1.80
2019-02-05T16:25:56.867Z,2.10
2019-02-05T16:28:24.131Z,2.60
2019-02-05T16:30:51.375Z,2.00
2019-02-05T16:33:18.689Z,2.17
2019-02-05T16:35:46.268Z,2.37
2019-02-05T16:38:14.177Z,2.00
2019-02-05T16:40:41.423Z,2.37
2019-02-05T16:43:08.706Z,1.80
2019-02-05T16:45:36.559Z,2.23
2019-02-05T16:48:05.822Z,1.97
2019-02-05T16:50:37.472Z,2.00
2019-02-05T16:53:12.606Z,2.00
2019-02-05T16:55:39.853Z,2.20
2019-02-05T16:58:07.084Z,2.00
2019-02-05T17:00:34.363Z,2.00
2019-02-05T17:03:01.630Z,1.80
2019-02-05T17:05:30.655Z,1.70
2019-02-05T17:07:57.961Z,1.90
2019-02-05T17:10:25.431Z,1.90
2019-02-05T17:12:52.618Z,1.83
2019-02-05T17:15:19.806Z,2.30
2019-02-05T17:17:47.003Z,2.43
2019-02-05T17:20:21.597Z,1.80
2019-02-05T17:22:48.854Z,2.37
2019-02-05T17:25:17.292Z,2.20
2019-02-05T17:27:45.052Z,2.00
2019-02-05T17:30:14.983Z,1.83
2019-02-05T17:32:42.443Z,1.70
2019-02-05T17:35:09.705Z,2.30
2019-02-05T17:37:37.331Z,2.70
2019-02-05T17:40:05.501Z,2.10
2019-02-05T17:42:32.750Z,2.03
2019-02-05T17:45:00.236Z,1.90
2019-02-05T17:47:27.512Z,2.43
2019-02-05T17:49:54.736Z,2.03
2019-02-05T17:52:22.450Z,2.50
2019-02-05T17:54:49.827Z,2.20
2019-02-05T17:57:17.082Z,1.80
2019-02-05T17:59:44.428Z,2.03
2019-02-05T18:02:12.576Z,1.90
2019-02-05T18:04:40.048Z,1.93
2019-02-05T18:07:07.400Z,1.97
2019-02-05T18:09:35.176Z,1.90
2019-02-05T18:12:02.475Z,1.87
2019-02-05T18:14:29.756Z,1.50
2019-02-05T18:16:56.989Z,1.90
2019-02-05T18:19:24.596Z,2.67
2019-02-05T18:21:51.813Z,2.63
2019-02-05T18:24:19.092Z,2.13
2019-02-05T18:26:46.386Z,2.80
2019-02-05T18:29:13.563Z,2.30
2019-02-05T18:31:40.825Z,2.37
2019-02-05T18:34:08.017Z,2.33
2019-02-05T18:36:35.692Z,2.23
2019-02-05T18:39:04.797Z,2.00
2019-02-05T18:41:31.970Z,2.20
2019-02-05T18:43:59.221Z,2.50
2019-02-05T18:46:26.563Z,2.10
2019-02-05T18:49:04.265Z,2.00
2019-02-05T18:51:22.960Z,2.30
2019-02-05T18:53:50.587Z,2.03
2019-02-05T18:56:17.802Z,2.07
2019-02-05T18:58:45.027Z,2.10
2019-02-05T19:01:12.238Z,2.27
2019-02-05T19:03:39.484Z,2.00
2019-02-05T19:06:06.676Z,2.30
2019-02-05T19:08:34.021Z,2.40
2019-02-05T19:11:01.216Z,2.07
2019-02-05T19:13:28.800Z,1.90
2019-02-05T19:15:56.019Z,2.63
2019-02-05T19:18:27.378Z,2.30
2019-02-05T19:20:54.714Z,2.30
2019-02-05T19:23:22.103Z,2.53
2019-02-05T19:26:11.994Z,2.40
2019-02-05T19:28:40.541Z,3.00
2019-02-05T19:31:30.289Z,2.80
2019-02-05T19:33:57.649Z,2.07
2019-02-05T19:36:25.497Z,3.20
2019-02-05T19:38:52.736Z,3.07
2019-02-05T19:41:19.987Z,2.63
2019-02-05T19:43:47.371Z,3.17
2019-02-05T19:46:37.382Z,3.30
2019-02-05T19:49:21.481Z,2.90
2019-02-05T19:51:45.174Z,3.50
2019-02-05T19:54:13.183Z,4.00
2019-02-05T19:56:40.438Z,3.00
2019-02-05T19:59:08.070Z,3.03
2019-02-05T20:01:35.471Z,3.20
2019-02-05T20:04:02.919Z,2.90
2019-02-05T20:06:31.635Z,3.00
2019-02-05T20:08:59.378Z,2.80
2019-02-05T20:11:26.748Z,3.20
2019-02-05T20:13:54.237Z,3.43
2019-02-05T20:16:25.413Z,3.00
2019-02-05T20:18:52.944Z,3.90
2019-02-05T20:21:20.321Z,2.70
2019-02-05T20:23:49.236Z,3.23
2019-02-05T20:26:17.093Z,2.83
2019-02-05T20:28:44.558Z,2.97
2019-02-05T20:31:12.105Z,3.00
2019-02-05T20:33:49.405Z,3.27
2019-02-05T20:36:08.906Z,2.63
2019-02-05T20:38:36.497Z,2.70
2019-02-05T20:41:03.869Z,2.70
2019-02-05T20:43:31.621Z,2.40
2019-02-05T20:45:58.872Z,2.70
2019-02-05T20:48:29.605Z,3.40
2019-02-05T20:50:55.973Z,2.37
2019-02-05T20:53:23.312Z,3.33
2019-02-05T20:55:50.646Z,2.50
2019-02-05T20:58:18.059Z,2.60
2019-02-05T21:00:45.262Z,2.70
2019-02-05T21:03:12.705Z,2.50
2019-02-05T21:05:40.330Z,2.50
2019-02-05T21:08:07.952Z,2.50
2019-02-05T21:10:36.382Z,2.83
2019-02-05T21:13:03.701Z,3.07
2019-02-05T21:15:31.250Z,2.30
2019-02-05T21:17:58.582Z,3.20
2019-02-05T21:20:29.284Z,2.37
2019-02-05T21:22:57.009Z,2.50
2019-02-05T21:25:24.783Z,3.10
2019-02-05T21:27:52.082Z,2.83
2019-02-05T21:30:19.679Z,3.30
2019-02-05T21:32:47.985Z,2.10
2019-02-05T21:35:15.495Z,2.30
2019-02-05T21:37:46.002Z,2.80
2019-02-05T21:40:16.628Z,2.70
2019-02-05T21:42:46.266Z,2.70
2019-02-05T21:45:19.900Z,2.70
2019-02-05T21:47:47.567Z,2.80
2019-02-05T21:50:17.704Z,2.90
2019-02-05T21:52:49.375Z,2.77
2019-02-05T21:55:17.299Z,2.60
2019-02-05T21:57:44.530Z,2.53
2019-02-05T22:00:17.424Z,2.37
2019-02-05T22:02:44.834Z,2.57
2019-02-05T22:05:12.084Z,2.40
2019-02-05T22:07:39.403Z,2.20
2019-02-05T22:10:06.717Z,2.27
2019-02-05T22:12:33.985Z,2.50
2019-02-05T22:15:01.296Z,2.33
2019-02-05T22:17:28.461Z,2.47
2019-02-05T22:19:55.724Z,2.50
2019-02-05T22:22:23.052Z,2.30
2019-02-05T22:24:50.290Z,2.97
2019-02-05T22:27:17.939Z,2.17
2019-02-05T22:29:45.162Z,2.20
2019-02-05T22:32:12.421Z,2.37
2019-02-05T22:34:39.711Z,2.67
2019-02-05T22:37:06.982Z,2.00
2019-02-05T22:39:34.704Z,2.33
2019-02-05T22:42:01.925Z,2.80
2019-02-05T22:44:29.246Z,2.83
2019-02-05T22:46:56.494Z,2.10
2019-02-05T22:49:23.892Z,2.10
2019-02-05T22:51:51.427Z,2.23
2019-02-05T22:54:18.648Z,2.40
2019-02-05T22:56:46.128Z,2.77
2019-02-05T22:59:13.583Z,2.37
2019-02-05T23:01:52.505Z,2.27
2019-02-05T23:04:31.649Z,2.37
2019-02-05T23:07:02.958Z,2.40
2019-02-05T23:10:25.289Z,3.30
2019-02-05T23:13:09.783Z,2.60
2019-02-05T23:15:42.415Z,3.00
2019-02-05T23:18:10.270Z,2.50
2019-02-05T23:20:37.617Z,2.13
2019-02-05T23:23:04.849Z,2.70
2019-02-05T23:25:32.038Z,2.13
2019-02-05T23:27:59.284Z,2.70
2019-02-05T23:30:27.771Z,2.17
2019-02-05T23:32:55.010Z,2.50
2019-02-05T23:35:22.222Z,2.40
2019-02-05T23:37:49.492Z,2.63
2019-02-05T23:40:16.717Z,2.30
2019-02-05T23:42:43.966Z,2.80
2019-02-05T23:45:11.684Z,2.43
2019-02-05T23:47:38.949Z,2.90
2019-02-05T23:50:08.222Z,2.50
2019-02-05T23:52:35.569Z,2.37
2019-02-05T23:55:03.243Z,2.13
2019-02-05T23:57:30.462Z,2.63
2019-02-05T23:59:57.603Z,2.10
